Agat, GU (96928)

1:19 AM ChST on September 04, 2015 (GMT +1000)
Santa Rita | | Change Station
CLOSE
Current Station
Personal Weather Station
Location: Guam,
Elevation: 725 ft
Nearby Weather Stations

Elev 725 ft 13.40 °N, 144.70 °E | Updated 9 seconds ago

Light Rain
Light Rain
77.9 °F
Feels Like 80 °F
N
6.0
Wind Variable Wind from NE
Gusts 7.4 mph

Today
High -- | Low -- °F
--% Chance of Precip.
Yesterday
High -- | Low -- °F
Precip. -- in
6:10 AM 6:30 PM
Waning Gibbous, 69% visible
Pressure 29.82 in
Visibility 10.0 miles
Clouds Few 5000 ft
Scattered Clouds 10000 ft
Heat Index 80 °F
Dew Point 75 °F
Humidity 92%
Rainfall 0.00 in
Snow Depth Not available.
UV 0.0 out of 12
Pollen Not available.
Air Quality Not available.
Flu Activity Not available.
METAR PGUM 031454Z 03004KT 10SM -RA FEW050 SCT100 26/25 A2984 RMK AO2 RAB00 SLP097 P0001 60001 T02610250 58013 $
Pressure 29.82 in
Visibility 10.0 miles
Clouds Few 5000 ft
Scattered Clouds 10000 ft
Heat Index 80 °F
Dew Point 75 °F
Humidity 92%
Rainfall 0.00 in
Snow Depth Not available.
UV 0.0 out of 12
Pollen Not available.
Air Quality Not available.
Flu Activity Not available.
METAR PGUM 031454Z 03004KT 10SM -RA FEW050 SCT100 26/25 A2984 RMK AO2 RAB00 SLP097 P0001 60001 T02610250 58013 $

10-Day Weather Forecast

×

Almanac

Astronomy

Sep. 04, 2015 Rise Set
Actual Time
Civil Twilight
Nautical Twilight
Astronomical Twilight
Moon
Length of Visible Light
Length of Day
Tomorrow will be .
, % of the Moon is Illuminated

Today's Extremes

State Highs State Lows

Community

WunderPhotos

Upload Photos

1,851,972 photos uploaded!

WunderBlogs® & News

Nearby

Air Quality

  Air Quality AQ Index Pollutant
Not available.

Snow Depth

Station Depth Elevation

Earthquake Activity

City Distance Mag. Time & Date
Minimum magnitude displayed is 2.5.

Coastal Water Temperatures

Place Temperature

Stations

Nearby Weather Stations

Station Location Temp. Windchill Dew Point Humidity Wind Precip. Elev Updated Type